createdAt,value
2022-09-18T00:01:34.269Z,6.00
2022-09-18T00:04:04.152Z,7.10
2022-09-18T00:06:35.060Z,6.32
2022-09-18T00:09:06.046Z,6.77
2022-09-18T00:11:39.812Z,7.40
2022-09-18T00:14:09.496Z,6.50
2022-09-18T00:16:37.620Z,6.40
2022-09-18T00:19:06.580Z,7.80
2022-09-18T00:21:36.044Z,6.20
2022-09-18T00:24:05.870Z,6.40
2022-09-18T00:26:34.083Z,6.65
2022-09-18T00:29:02.333Z,5.65
2022-09-18T00:31:32.948Z,6.07
2022-09-18T00:34:03.295Z,7.03
2022-09-18T00:36:31.117Z,5.80
2022-09-18T00:38:59.644Z,6.38
2022-09-18T00:41:33.859Z,4.80
2022-09-18T00:44:29.293Z,5.50
2022-09-18T00:47:03.228Z,5.00
2022-09-18T00:49:31.480Z,5.25
2022-09-18T00:52:00.663Z,5.18
2022-09-18T00:54:37.550Z,4.67
2022-09-18T00:57:14.162Z,5.53
2022-09-18T00:59:45.639Z,5.20
2022-09-18T01:02:13.253Z,6.90
2022-09-18T01:04:40.885Z,5.03
2022-09-18T01:07:29.567Z,3.70
2022-09-18T01:10:12.152Z,5.05
2022-09-18T01:13:00.547Z,5.13
2022-09-18T01:16:16.242Z,5.38
2022-09-18T01:18:59.350Z,5.05
2022-09-18T01:21:48.084Z,7.43
2022-09-18T01:24:28.563Z,5.07
2022-09-18T01:26:59.195Z,5.95
2022-09-18T01:30:00.470Z,6.25
2022-09-18T01:32:46.335Z,6.28
2022-09-18T01:35:40.650Z,4.78
2022-09-18T01:38:23.385Z,5.60
2022-09-18T01:40:56.705Z,5.93
2022-09-18T01:43:28.298Z,5.63
2022-09-18T01:45:59.592Z,5.32
2022-09-18T01:48:36.886Z,5.33
2022-09-18T01:51:20.756Z,7.88
2022-09-18T01:53:56.119Z,4.60
2022-09-18T01:56:34.169Z,4.95
2022-09-18T01:59:07.338Z,5.53
2022-09-18T02:01:47.044Z,6.13
2022-09-18T02:04:21.328Z,6.20
2022-09-18T02:07:20.726Z,7.03
2022-09-18T02:09:49.157Z,5.47
2022-09-18T02:12:21.054Z,6.57
2022-09-18T02:14:55.948Z,7.15
2022-09-18T02:17:51.627Z,8.13
2022-09-18T02:20:29.331Z,6.60
2022-09-18T02:23:00.528Z,8.02
2022-09-18T02:25:44.726Z,7.57
2022-09-18T02:28:16.909Z,7.80
2022-09-18T02:30:45.491Z,7.68
2022-09-18T02:33:36.167Z,8.55
2022-09-18T02:36:06.883Z,8.25
2022-09-18T02:39:08.283Z,8.23
2022-09-18T02:41:53.996Z,7.07
2022-09-18T02:44:45.040Z,5.93
2022-09-18T02:47:44.063Z,7.43
2022-09-18T02:50:31.661Z,6.73
2022-09-18T02:53:12.748Z,7.78
2022-09-18T02:55:47.330Z,6.13
2022-09-18T02:58:40.967Z,5.70
2022-09-18T03:01:11.722Z,7.15
2022-09-18T03:03:40.097Z,4.88
2022-09-18T03:06:10.469Z,7.38
2022-09-18T03:08:38.585Z,4.72
2022-09-18T03:11:17.608Z,7.33
2022-09-18T03:13:45.201Z,5.90
2022-09-18T03:16:12.812Z,6.43
2022-09-18T03:18:40.361Z,5.05
2022-09-18T03:21:07.818Z,6.32
2022-09-18T03:23:35.452Z,7.90
2022-09-18T03:26:14.994Z,7.82
2022-09-18T03:28:42.722Z,7.00
2022-09-18T03:31:11.465Z,7.65
2022-09-18T03:33:39.507Z,7.18
2022-09-18T03:36:08.509Z,7.20
2022-09-18T03:38:38.254Z,7.22
2022-09-18T03:41:07.558Z,7.22
2022-09-18T03:43:35.553Z,8.23
2022-09-18T03:46:06.067Z,7.28
2022-09-18T03:48:33.740Z,7.03
2022-09-18T03:51:01.683Z,9.18
2022-09-18T03:53:29.315Z,8.10
2022-09-18T03:56:09.529Z,7.47
2022-09-18T03:58:55.811Z,9.43
2022-09-18T04:01:36.613Z,8.52
2022-09-18T04:04:39.597Z,10.38
2022-09-18T04:07:42.627Z,8.32
2022-09-18T04:10:36.759Z,9.17
2022-09-18T04:13:05.544Z,9.88
2022-09-18T04:15:35.857Z,8.70
2022-09-18T04:18:03.411Z,9.75
2022-09-18T04:20:31.943Z,8.85
2022-09-18T04:23:00.825Z,10.23
2022-09-18T04:25:28.208Z,10.55
2022-09-18T04:27:57.154Z,11.73
2022-09-18T04:30:24.701Z,10.75
2022-09-18T04:32:52.770Z,9.05
2022-09-18T04:35:21.347Z,9.27
2022-09-18T04:37:49.827Z,8.85
2022-09-18T04:40:18.103Z,12.52
2022-09-18T04:42:47.057Z,11.53
2022-09-18T04:45:14.685Z,10.63
2022-09-18T04:47:43.943Z,11.40
2022-09-18T04:50:11.669Z,12.73
2022-09-18T04:52:59.091Z,10.93
2022-09-18T04:55:27.966Z,10.07
2022-09-18T04:57:56.201Z,11.27
2022-09-18T05:00:24.212Z,8.87
2022-09-18T05:02:52.163Z,11.60
2022-09-18T05:05:22.884Z,9.23
2022-09-18T05:07:51.471Z,12.27
2022-09-18T05:10:19.725Z,11.93
2022-09-18T05:12:48.382Z,9.47
2022-09-18T05:15:16.504Z,8.00
2022-09-18T05:17:47.553Z,9.23
2022-09-18T05:20:16.924Z,8.73
2022-09-18T05:22:47.456Z,7.93
2022-09-18T05:25:20.923Z,7.82
2022-09-18T05:27:59.812Z,7.93
2022-09-18T05:30:32.710Z,8.67
2022-09-18T05:33:05.185Z,9.98
2022-09-18T05:35:35.206Z,10.82
2022-09-18T05:38:03.466Z,11.48
2022-09-18T05:40:37.148Z,10.63
2022-09-18T05:43:05.985Z,11.27
2022-09-18T05:45:35.354Z,10.68
2022-09-18T05:48:09.102Z,10.65
2022-09-18T05:50:37.467Z,9.35
2022-09-18T05:53:14.899Z,11.77
2022-09-18T05:55:53.481Z,9.77
2022-09-18T05:58:21.733Z,9.82
2022-09-18T06:00:52.774Z,10.48
2022-09-18T06:03:28.000Z,8.35
2022-09-18T06:05:59.225Z,8.07
2022-09-18T06:08:26.901Z,8.95
2022-09-18T06:10:55.028Z,8.23
2022-09-18T06:13:22.732Z,9.13
2022-09-18T06:15:52.931Z,7.93
2022-09-18T06:18:40.806Z,9.93
2022-09-18T06:21:09.150Z,9.45
2022-09-18T06:23:36.982Z,10.23
2022-09-18T06:26:14.888Z,8.63
2022-09-18T06:28:44.270Z,8.40
2022-09-18T06:31:11.833Z,9.85
2022-09-18T06:33:59.783Z,10.30
2022-09-18T06:36:27.278Z,9.10
2022-09-18T06:39:13.346Z,9.07
2022-09-18T06:41:40.954Z,13.67
2022-09-18T06:44:18.236Z,9.43
2022-09-18T06:46:54.902Z,10.77
2022-09-18T06:49:35.655Z,11.00
2022-09-18T06:52:04.643Z,12.05
2022-09-18T06:54:33.846Z,11.23
2022-09-18T06:57:02.771Z,11.85
2022-09-18T06:59:31.783Z,12.90
2022-09-18T07:02:00.829Z,11.30
2022-09-18T07:04:45.065Z,11.57
2022-09-18T07:07:12.588Z,12.68
2022-09-18T07:09:40.046Z,11.50
2022-09-18T07:12:16.384Z,11.35
2022-09-18T07:14:48.339Z,12.63
2022-09-18T07:17:18.737Z,11.32
2022-09-18T07:19:51.730Z,11.80
2022-09-18T07:22:22.228Z,11.10
2022-09-18T07:24:49.961Z,9.23
2022-09-18T07:27:17.457Z,10.75
2022-09-18T07:29:45.533Z,13.57
2022-09-18T07:32:15.854Z,11.88
2022-09-18T07:34:45.891Z,12.23
2022-09-18T07:37:19.612Z,12.45
2022-09-18T07:39:55.596Z,10.65
2022-09-18T07:42:41.564Z,10.75
2022-09-18T07:45:10.554Z,10.40
2022-09-18T07:47:37.966Z,10.05
2022-09-18T07:50:07.438Z,9.43
2022-09-18T07:52:35.196Z,7.78
2022-09-18T07:55:02.750Z,8.00
2022-09-18T07:57:33.054Z,11.88
2022-09-18T08:00:32.095Z,14.52
2022-09-18T08:03:04.521Z,9.70
2022-09-18T08:05:55.137Z,10.85
2022-09-18T08:08:23.258Z,12.00
2022-09-18T08:11:04.514Z,10.83
2022-09-18T08:13:49.595Z,10.85
2022-09-18T08:16:49.570Z,10.75
2022-09-18T08:19:35.609Z,10.30
2022-09-18T08:22:11.912Z,9.82
2022-09-18T08:24:45.243Z,8.35
2022-09-18T08:27:13.048Z,9.20
2022-09-18T08:29:41.408Z,7.60
2022-09-18T08:32:10.964Z,7.50
2022-09-18T08:34:38.850Z,8.05
2022-09-18T08:37:06.543Z,7.40
2022-09-18T08:39:52.622Z,8.27
2022-09-18T08:43:06.322Z,6.35
2022-09-18T08:45:51.318Z,7.97
2022-09-18T08:48:54.818Z,4.95
2022-09-18T08:51:34.825Z,6.57
2022-09-18T08:54:17.296Z,5.50
2022-09-18T08:57:20.351Z,5.60
2022-09-18T09:00:12.775Z,7.88
2022-09-18T09:02:52.429Z,5.78
2022-09-18T09:05:24.881Z,5.22
2022-09-18T09:08:01.855Z,5.75
2022-09-18T09:10:41.367Z,5.43
2022-09-18T09:13:12.177Z,5.80
2022-09-18T09:16:03.807Z,6.85
2022-09-18T09:18:49.426Z,5.20
2022-09-18T09:21:35.537Z,4.65
2022-09-18T09:24:30.067Z,3.67
2022-09-18T09:27:26.708Z,4.13
2022-09-18T09:30:21.341Z,5.95
2022-09-18T09:33:28.239Z,5.97
2022-09-18T09:36:29.989Z,4.97
2022-09-18T09:39:30.517Z,5.15
2022-09-18T09:42:23.185Z,6.75
2022-09-18T09:45:13.882Z,3.78
2022-09-18T09:47:44.457Z,3.60
2022-09-18T09:50:39.970Z,3.70
2022-09-18T09:53:12.102Z,3.63
2022-09-18T09:56:08.203Z,3.53
2022-09-18T09:58:42.096Z,3.35
2022-09-18T10:01:35.577Z,4.70
2022-09-18T10:04:34.749Z,3.30
2022-09-18T10:07:15.826Z,2.58
2022-09-18T10:10:28.018Z,3.17
2022-09-18T10:13:17.574Z,3.95
2022-09-18T10:15:48.239Z,2.00
2022-09-18T10:18:30.110Z,2.38
2022-09-18T10:21:06.500Z,3.05
2022-09-18T10:23:43.011Z,2.88
2022-09-18T10:26:27.485Z,2.90
2022-09-18T10:28:55.532Z,5.38
2022-09-18T10:31:23.531Z,2.72
2022-09-18T10:33:53.445Z,3.00
2022-09-18T10:36:38.586Z,4.77
2022-09-18T10:39:36.727Z,2.05
2022-09-18T10:42:16.824Z,2.90
2022-09-18T10:45:01.914Z,28.33
2022-09-18T10:47:37.520Z,2.58
2022-09-18T10:50:19.342Z,2.47
2022-09-18T10:52:50.051Z,2.50
2022-09-18T10:55:28.147Z,1.65
2022-09-18T10:58:14.809Z,3.60
2022-09-18T11:01:01.884Z,2.53
2022-09-18T11:03:31.474Z,3.10
2022-09-18T11:06:02.753Z,2.40
2022-09-18T11:08:49.739Z,1.50
2022-09-18T11:11:38.028Z,3.38
2022-09-18T11:14:26.465Z,1.90
2022-09-18T11:17:04.957Z,2.70
2022-09-18T11:19:40.471Z,1.42
2022-09-18T11:22:42.820Z,1.58
2022-09-18T11:25:30.592Z,2.22
2022-09-18T11:28:28.650Z,5.30
2022-09-18T11:31:11.336Z,2.23
2022-09-18T11:33:53.901Z,3.05
2022-09-18T11:36:32.434Z,2.60
2022-09-18T11:39:03.402Z,2.10
2022-09-18T11:41:37.344Z,2.10
2022-09-18T11:44:14.449Z,2.80
2022-09-18T11:47:07.267Z,2.33
2022-09-18T11:49:46.063Z,2.70
2022-09-18T11:52:28.082Z,2.92
2022-09-18T11:55:14.355Z,2.20
2022-09-18T11:57:54.805Z,2.42
2022-09-18T12:00:24.099Z,1.80
2022-09-18T12:03:12.280Z,1.50
2022-09-18T12:05:53.379Z,2.67
2022-09-18T12:08:34.759Z,1.60
2022-09-18T12:11:13.443Z,1.35
2022-09-18T12:13:41.173Z,1.25
2022-09-18T12:16:30.326Z,3.15
2022-09-18T12:19:17.277Z,2.45
2022-09-18T12:22:06.215Z,1.95
2022-09-18T12:24:34.113Z,1.63
2022-09-18T12:27:29.757Z,2.00
2022-09-18T12:30:04.298Z,2.25
2022-09-18T12:32:42.106Z,1.17
2022-09-18T12:35:27.857Z,1.70
2022-09-18T12:38:01.052Z,1.70
2022-09-18T12:40:36.256Z,1.70
2022-09-18T12:43:23.164Z,3.50
2022-09-18T12:46:36.961Z,1.70
2022-09-18T12:49:42.534Z,3.20
2022-09-18T12:52:55.252Z,1.60
2022-09-18T12:55:36.864Z,1.63
2022-09-18T12:58:40.729Z,1.20
2022-09-18T13:01:38.368Z,3.13
2022-09-18T13:04:31.373Z,2.75
2022-09-18T13:07:08.569Z,2.67
2022-09-18T13:10:23.174Z,1.60
2022-09-18T13:13:14.168Z,1.88
2022-09-18T13:15:57.214Z,2.22
2022-09-18T13:18:29.352Z,2.72
2022-09-18T13:21:00.051Z,1.85
2022-09-18T13:23:38.012Z,2.80
2022-09-18T13:26:08.261Z,3.15
2022-09-18T13:28:35.942Z,2.40
2022-09-18T13:31:15.607Z,2.10
2022-09-18T13:34:01.997Z,3.30
2022-09-18T13:36:42.070Z,2.22
2022-09-18T13:39:21.174Z,1.90
2022-09-18T13:41:51.902Z,1.60
2022-09-18T13:44:30.558Z,2.33
2022-09-18T13:47:09.849Z,1.70
2022-09-18T13:49:59.057Z,1.65
2022-09-18T13:52:35.270Z,1.50
2022-09-18T13:55:13.281Z,3.00
2022-09-18T13:57:45.076Z,2.47
2022-09-18T14:00:21.669Z,3.13
2022-09-18T14:02:50.016Z,1.50
2022-09-18T14:05:34.288Z,2.47
2022-09-18T14:08:19.978Z,2.15
2022-09-18T14:10:59.823Z,2.17
2022-09-18T14:13:46.471Z,2.10
2022-09-18T14:16:20.418Z,2.70
2022-09-18T14:18:48.031Z,1.50
2022-09-18T14:21:27.357Z,4.15
2022-09-18T14:24:21.108Z,2.35
2022-09-18T14:26:48.596Z,2.95
2022-09-18T14:29:19.699Z,1.70
2022-09-18T14:31:49.306Z,2.05
2022-09-18T14:34:41.813Z,2.08
2022-09-18T14:37:35.690Z,1.90
2022-09-18T14:40:25.410Z,1.77
2022-09-18T14:42:53.492Z,3.08
2022-09-18T14:45:28.256Z,2.70
2022-09-18T14:47:56.890Z,1.77
2022-09-18T14:50:37.897Z,3.42
2022-09-18T14:53:30.734Z,2.28
2022-09-18T14:55:58.200Z,4.68
2022-09-18T14:58:31.367Z,1.63
2022-09-18T15:00:58.948Z,2.03
2022-09-18T15:03:29.576Z,3.22
2022-09-18T15:06:10.473Z,2.15
2022-09-18T15:08:38.700Z,3.23
2022-09-18T15:11:07.275Z,13.30
2022-09-18T15:13:38.026Z,2.50
2022-09-18T15:16:06.018Z,2.90
2022-09-18T15:18:42.255Z,2.00
2022-09-18T15:21:33.587Z,3.25
2022-09-18T15:24:03.574Z,4.65
2022-09-18T15:26:35.970Z,2.28
2022-09-18T15:29:12.901Z,3.05
2022-09-18T15:31:40.513Z,2.45
2022-09-18T15:34:16.139Z,2.92
2022-09-18T15:36:44.377Z,5.90
2022-09-18T15:39:34.478Z,24.42
2022-09-18T15:42:20.180Z,2.90
2022-09-18T15:44:50.705Z,6.10
2022-09-18T15:47:30.875Z,4.97
2022-09-18T15:49:59.567Z,2.15
2022-09-18T15:53:02.473Z,2.88
2022-09-18T15:55:51.109Z,3.40
2022-09-18T15:58:25.383Z,4.25
2022-09-18T16:01:01.154Z,4.43
2022-09-18T16:03:30.413Z,4.15
2022-09-18T16:06:10.061Z,3.30
2022-09-18T16:08:39.361Z,2.90
2022-09-18T16:11:27.370Z,2.63
2022-09-18T16:13:56.359Z,2.90
2022-09-18T16:16:25.170Z,4.40
2022-09-18T16:19:10.793Z,5.83
2022-09-18T16:21:44.034Z,3.40
2022-09-18T16:24:38.005Z,2.90
2022-09-18T16:27:07.469Z,2.90
2022-09-18T16:29:35.596Z,5.10
2022-09-18T16:32:03.178Z,3.63
2022-09-18T16:34:30.733Z,4.50
2022-09-18T16:36:58.549Z,3.63
2022-09-18T16:39:27.541Z,2.00
2022-09-18T16:41:55.033Z,3.90
2022-09-18T16:44:22.956Z,3.30
2022-09-18T16:46:56.060Z,2.60
2022-09-18T16:49:27.336Z,5.32
2022-09-18T16:51:58.188Z,5.03
2022-09-18T16:54:26.377Z,3.70
2022-09-18T16:57:01.785Z,3.03
2022-09-18T16:59:31.967Z,3.30
2022-09-18T17:02:04.550Z,2.67
2022-09-18T17:04:33.376Z,4.68
2022-09-18T17:07:01.509Z,4.68
2022-09-18T17:09:28.969Z,3.92
2022-09-18T17:11:56.562Z,4.10
2022-09-18T17:14:24.370Z,4.83
2022-09-18T17:16:56.037Z,4.10
2022-09-18T17:19:25.185Z,3.55
2022-09-18T17:21:53.468Z,4.18
2022-09-18T17:24:26.453Z,2.97
2022-09-18T17:26:54.692Z,3.35
2022-09-18T17:29:22.715Z,4.03
2022-09-18T17:31:50.771Z,3.78
2022-09-18T17:34:19.343Z,4.25
2022-09-18T17:36:46.962Z,2.38
2022-09-18T17:39:15.056Z,4.40
2022-09-18T17:41:42.900Z,6.78
2022-09-18T17:44:10.339Z,5.80
2022-09-18T17:46:38.186Z,2.92
2022-09-18T17:49:06.788Z,3.55
2022-09-18T17:51:34.538Z,3.55
2022-09-18T17:54:05.499Z,3.57
2022-09-18T17:56:34.147Z,3.53
2022-09-18T17:59:05.633Z,5.43
2022-09-18T18:01:36.775Z,3.25
2022-09-18T18:04:05.319Z,5.60
2022-09-18T18:06:33.182Z,6.20
2022-09-18T18:09:01.101Z,5.30
2022-09-18T18:11:29.762Z,3.70
2022-09-18T18:14:06.327Z,4.07
2022-09-18T18:16:35.440Z,4.43
2022-09-18T18:19:05.487Z,4.35
2022-09-18T18:21:34.845Z,3.55
2022-09-18T18:24:07.475Z,5.10
2022-09-18T18:26:37.149Z,3.20
2022-09-18T18:29:06.774Z,3.03
2022-09-18T18:31:34.582Z,5.45
2022-09-18T18:34:02.213Z,6.25
2022-09-18T18:36:32.470Z,4.20
2022-09-18T18:39:02.146Z,4.13
2022-09-18T18:41:31.432Z,2.38
2022-09-18T18:44:06.018Z,2.50
2022-09-18T18:46:38.934Z,5.65
2022-09-18T18:49:09.520Z,4.40
2022-09-18T18:51:43.288Z,3.25
2022-09-18T18:54:11.495Z,3.28
2022-09-18T18:56:39.382Z,5.10
2022-09-18T18:59:10.347Z,2.92
2022-09-18T19:01:38.473Z,1.80
2022-09-18T19:04:09.553Z,2.90
2022-09-18T19:06:40.055Z,3.80
2022-09-18T19:09:20.060Z,3.85
2022-09-18T19:11:49.656Z,2.47
2022-09-18T19:14:19.008Z,2.80
2022-09-18T19:16:47.824Z,3.17
2022-09-18T19:19:17.761Z,3.67
2022-09-18T19:21:45.808Z,4.03
2022-09-18T19:24:14.175Z,4.43
2022-09-18T19:26:43.347Z,4.10
2022-09-18T19:29:15.219Z,4.43
2022-09-18T19:31:44.801Z,3.03
2022-09-18T19:34:14.879Z,2.85
2022-09-18T19:36:44.391Z,2.77
2022-09-18T19:39:12.395Z,2.15
2022-09-18T19:41:42.686Z,4.23
2022-09-18T19:44:34.936Z,3.00
2022-09-18T19:47:14.463Z,5.10
2022-09-18T19:49:42.324Z,2.70
2022-09-18T19:52:20.114Z,3.10
2022-09-18T19:54:49.072Z,3.75
2022-09-18T19:57:17.394Z,2.75
2022-09-18T19:59:47.226Z,5.72
2022-09-18T20:02:17.899Z,2.65
2022-09-18T20:04:45.551Z,4.32
2022-09-18T20:07:16.318Z,5.97
2022-09-18T20:09:44.605Z,6.47
2022-09-18T20:12:14.094Z,4.30
2022-09-18T20:14:43.718Z,5.50
2022-09-18T20:17:12.353Z,3.05
2022-09-18T20:19:40.793Z,3.00
2022-09-18T20:22:08.246Z,2.42
2022-09-18T20:24:36.049Z,2.80
2022-09-18T20:27:04.717Z,3.45
2022-09-18T20:29:32.513Z,3.55
2022-09-18T20:32:01.088Z,2.63
2022-09-18T20:34:28.567Z,2.70
2022-09-18T20:36:56.002Z,3.45
2022-09-18T20:39:23.594Z,2.10
2022-09-18T20:41:51.510Z,3.30
2022-09-18T20:44:19.829Z,1.95
2022-09-18T20:46:47.507Z,3.42
2022-09-18T20:49:18.263Z,4.10
2022-09-18T20:51:46.233Z,3.15
2022-09-18T20:54:15.363Z,5.05
2022-09-18T20:56:44.655Z,2.50
2022-09-18T20:59:16.744Z,5.20
2022-09-18T21:01:45.446Z,3.78
2022-09-18T21:04:19.527Z,3.53
2022-09-18T21:06:56.529Z,3.10
2022-09-18T21:09:27.404Z,2.92
2022-09-18T21:11:57.192Z,1.80
2022-09-18T21:14:25.699Z,3.00
2022-09-18T21:16:53.947Z,2.20
2022-09-18T21:19:21.620Z,2.22
2022-09-18T21:21:49.588Z,2.42
2022-09-18T21:24:17.676Z,3.70
2022-09-18T21:26:48.273Z,2.13
2022-09-18T21:29:22.974Z,4.30
2022-09-18T21:31:55.580Z,2.75
2022-09-18T21:34:34.166Z,3.00
2022-09-18T21:37:08.461Z,1.90
2022-09-18T21:39:36.322Z,3.53
2022-09-18T21:42:07.490Z,3.60
2022-09-18T21:44:37.938Z,2.73
2022-09-18T21:47:08.078Z,2.92
2022-09-18T21:49:35.700Z,2.37
2022-09-18T21:52:06.441Z,2.45
2022-09-18T21:54:34.420Z,2.23
2022-09-18T21:57:03.898Z,2.60
2022-09-18T21:59:32.426Z,2.30
2022-09-18T22:02:01.175Z,2.15
2022-09-18T22:04:32.426Z,3.25
2022-09-18T22:07:01.825Z,1.90
2022-09-18T22:09:32.971Z,1.23
2022-09-18T22:12:04.275Z,2.88
2022-09-18T22:14:34.115Z,2.70
2022-09-18T22:17:04.559Z,1.80
2022-09-18T22:19:33.474Z,2.03
2022-09-18T22:22:02.075Z,4.10
2022-09-18T22:24:30.016Z,2.33
2022-09-18T22:27:00.111Z,4.00
2022-09-18T22:29:30.999Z,3.55
2022-09-18T22:32:02.626Z,1.55
2022-09-18T22:34:32.712Z,2.92
2022-09-18T22:37:01.031Z,2.13
2022-09-18T22:39:29.001Z,3.30
2022-09-18T22:41:56.817Z,2.90
2022-09-18T22:44:24.279Z,2.03
2022-09-18T22:46:53.386Z,2.70
2022-09-18T22:49:22.929Z,1.80
2022-09-18T22:51:51.670Z,2.97
2022-09-18T22:54:26.640Z,4.18
2022-09-18T22:56:55.410Z,1.60
2022-09-18T22:59:25.241Z,2.40
2022-09-18T23:02:01.537Z,2.40
2022-09-18T23:04:31.850Z,2.03
2022-09-18T23:06:59.639Z,3.77
2022-09-18T23:09:27.766Z,2.45
2022-09-18T23:11:56.463Z,3.45
2022-09-18T23:14:26.465Z,2.90
2022-09-18T23:16:54.702Z,2.60
2022-09-18T23:19:28.783Z,1.92
2022-09-18T23:21:56.784Z,1.65
2022-09-18T23:24:25.038Z,1.67
2022-09-18T23:26:55.946Z,2.58
2022-09-18T23:29:24.985Z,1.70
2022-09-18T23:31:55.370Z,2.28
2022-09-18T23:34:26.886Z,2.08
2022-09-18T23:36:56.408Z,2.08
2022-09-18T23:39:28.823Z,2.33
2022-09-18T23:42:01.705Z,2.35
2022-09-18T23:44:31.541Z,1.80
2022-09-18T23:47:00.246Z,2.53
2022-09-18T23:49:28.967Z,2.50
2022-09-18T23:51:57.189Z,2.03
2022-09-18T23:54:27.859Z,1.73
2022-09-18T23:56:55.968Z,2.65
2022-09-18T23:59:25.140Z,2.13
